sensor_id;sensor_type;location;lat;lon;timestamp;pressure;altitude;pressure_sealevel;temperature;humidity
9717;BME280;4897;43.570;27.832;2023-02-20T00:00:49;98830.13;;;12.27;100.00
9717;BME280;4897;43.570;27.832;2023-02-20T00:03:16;98826.91;;;12.23;100.00
9717;BME280;4897;43.570;27.832;2023-02-20T00:05:43;98823.97;;;12.17;100.00
9717;BME280;4897;43.570;27.832;2023-02-20T00:08:10;98828.63;;;12.15;100.00
9717;BME280;4897;43.570;27.832;2023-02-20T00:10:37;98834.25;;;12.21;100.00
9717;BME280;4897;43.570;27.832;2023-02-20T00:13:04;98833.44;;;12.11;100.00
9717;BME280;4897;43.570;27.832;2023-02-20T00:15:31;98834.69;;;12.17;100.00
9717;BME280;4897;43.570;27.832;2023-02-20T00:17:59;98844.56;;;12.16;100.00
9717;BME280;4897;43.570;27.832;2023-02-20T00:20:26;98864.47;;;12.14;100.00
9717;BME280;4897;43.570;27.832;2023-02-20T00:22:54;98863.22;;;12.08;100.00
9717;BME280;4897;43.570;27.832;2023-02-20T00:25:21;98860.84;;;11.95;100.00
9717;BME280;4897;43.570;27.832;2023-02-20T00:27:48;98762.50;;;11.32;100.00
9717;BME280;4897;43.570;27.832;2023-02-20T00:30:17;98845.84;;;11.75;100.00
9717;BME280;4897;43.570;27.832;2023-02-20T00:39:37;98846.72;;;11.47;100.00
9717;BME280;4897;43.570;27.832;2023-02-20T00:42:04;98860.53;;;11.33;100.00
9717;BME280;4897;43.570;27.832;2023-02-20T00:44:31;98852.09;;;11.28;100.00
9717;BME280;4897;43.570;27.832;2023-02-20T00:46:58;98873.06;;;11.23;100.00
9717;BME280;4897;43.570;27.832;2023-02-20T00:49:25;98856.16;;;11.13;100.00
9717;BME280;4897;43.570;27.832;2023-02-20T00:51:52;98845.59;;;11.02;100.00
9717;BME280;4897;43.570;27.832;2023-02-20T00:54:19;98856.44;;;11.00;100.00
9717;BME280;4897;43.570;27.832;2023-02-20T00:56:47;98856.44;;;11.00;100.00
9717;BME280;4897;43.570;27.832;2023-02-20T00:59:14;98879.94;;;10.87;100.00
9717;BME280;4897;43.570;27.832;2023-02-20T01:01:41;98856.16;;;10.94;100.00
9717;BME280;4897;43.570;27.832;2023-02-20T01:04:08;98867.28;;;10.80;100.00
9717;BME280;4897;43.570;27.832;2023-02-20T01:06:35;98854.31;;;10.85;100.00
9717;BME280;4897;43.570;27.832;2023-02-20T01:09:02;98854.31;;;10.85;100.00
9717;BME280;4897;43.570;27.832;2023-02-20T01:11:29;98852.91;;;10.81;100.00
9717;BME280;4897;43.570;27.832;2023-02-20T01:13:57;98850.78;;;10.75;100.00
9717;BME280;4897;43.570;27.832;2023-02-20T01:16:24;98861.22;;;10.78;100.00
9717;BME280;4897;43.570;27.832;2023-02-20T01:18:52;98831.63;;;10.60;100.00
9717;BME280;4897;43.570;27.832;2023-02-20T01:21:19;98805.47;;;10.64;100.00
9717;BME280;4897;43.570;27.832;2023-02-20T01:23:46;98844.88;;;10.62;100.00
9717;BME280;4897;43.570;27.832;2023-02-20T01:26:12;98793.53;;;10.18;100.00
9717;BME280;4897;43.570;27.832;2023-02-20T01:28:42;98862.88;;;10.60;100.00
9717;BME280;4897;43.570;27.832;2023-02-20T01:31:10;98756.03;;;9.90;100.00
9717;BME280;4897;43.570;27.832;2023-02-20T01:33:40;98860.03;;;10.52;100.00
9717;BME280;4897;43.570;27.832;2023-02-20T01:36:08;98834.09;;;10.33;100.00
9717;BME280;4897;43.570;27.832;2023-02-20T01:38:35;98864.41;;;10.53;100.00
9717;BME280;4897;43.570;27.832;2023-02-20T01:41:02;98853.09;;;10.39;100.00
9717;BME280;4897;43.570;27.832;2023-02-20T01:43:29;98856.88;;;10.37;100.00
9717;BME280;4897;43.570;27.832;2023-02-20T01:49:01;98875.31;;;10.30;100.00
9717;BME280;4897;43.570;27.832;2023-02-20T01:51:30;98828.00;;;9.91;100.00
9717;BME280;4897;43.570;27.832;2023-02-20T01:54:00;98872.03;;;10.17;100.00
9717;BME280;4897;43.570;27.832;2023-02-20T01:56:27;98868.81;;;10.23;100.00
9717;BME280;4897;43.570;27.832;2023-02-20T01:58:54;98889.72;;;10.18;100.00
9717;BME280;4897;43.570;27.832;2023-02-20T02:01:21;98902.38;;;10.16;100.00
9717;BME280;4897;43.570;27.832;2023-02-20T02:03:52;98860.69;;;10.04;100.00
9717;BME280;4897;43.570;27.832;2023-02-20T02:06:21;98859.81;;;10.04;100.00
9717;BME280;4897;43.570;27.832;2023-02-20T02:08:50;98862.31;;;9.96;100.00
9717;BME280;4897;43.570;27.832;2023-02-20T02:11:19;98881.53;;;10.10;100.00
9717;BME280;4897;43.570;27.832;2023-02-20T02:13:47;98882.50;;;10.09;100.00
9717;BME280;4897;43.570;27.832;2023-02-20T02:16:19;98913.25;;;10.04;100.00
9717;BME280;4897;43.570;27.832;2023-02-20T02:18:55;98858.78;;;9.95;100.00
9717;BME280;4897;43.570;27.832;2023-02-20T02:21:56;98883.88;;;10.04;100.00
9717;BME280;4897;43.570;27.832;2023-02-20T02:24:45;98892.47;;;10.07;100.00
9717;BME280;4897;43.570;27.832;2023-02-20T02:34:03;98932.66;;;10.26;100.00
9717;BME280;4897;43.570;27.832;2023-02-20T02:36:47;98931.31;;;10.41;100.00
9717;BME280;4897;43.570;27.832;2023-02-20T02:39:20;98911.97;;;10.19;100.00
9717;BME280;4897;43.570;27.832;2023-02-20T02:41:54;98951.78;;;10.22;100.00
9717;BME280;4897;43.570;27.832;2023-02-20T02:44:29;98981.41;;;9.98;100.00
9717;BME280;4897;43.570;27.832;2023-02-20T02:47:00;98967.91;;;9.79;100.00
9717;BME280;4897;43.570;27.832;2023-02-20T02:49:34;98994.72;;;9.57;100.00
9717;BME280;4897;43.570;27.832;2023-02-20T02:52:05;98987.66;;;9.35;100.00
9717;BME280;4897;43.570;27.832;2023-02-20T02:54:34;98982.50;;;9.12;100.00
9717;BME280;4897;43.570;27.832;2023-02-20T02:57:19;98998.91;;;8.85;100.00
9717;BME280;4897;43.570;27.832;2023-02-20T02:59:48;98996.38;;;8.72;100.00
9717;BME280;4897;43.570;27.832;2023-02-20T03:02:18;99003.44;;;8.73;100.00
9717;BME280;4897;43.570;27.832;2023-02-20T03:04:49;98998.31;;;8.70;100.00
9717;BME280;4897;43.570;27.832;2023-02-20T03:07:19;98987.56;;;8.61;100.00
9717;BME280;4897;43.570;27.832;2023-02-20T03:09:49;99005.13;;;8.63;100.00
9717;BME280;4897;43.570;27.832;2023-02-20T03:12:19;99028.97;;;8.54;100.00
9717;BME280;4897;43.570;27.832;2023-02-20T03:14:52;99031.75;;;8.41;100.00
9717;BME280;4897;43.570;27.832;2023-02-20T03:17:44;99045.44;;;8.26;100.00
9717;BME280;4897;43.570;27.832;2023-02-20T03:20:14;98887.44;;;7.11;100.00
9717;BME280;4897;43.570;27.832;2023-02-20T03:22:47;98958.81;;;7.52;100.00
9717;BME280;4897;43.570;27.832;2023-02-20T03:25:18;99050.06;;;8.00;100.00
9717;BME280;4897;43.570;27.832;2023-02-20T03:27:49;99044.72;;;8.00;100.00
9717;BME280;4897;43.570;27.832;2023-02-20T03:30:21;99057.53;;;7.95;100.00
9717;BME280;4897;43.570;27.832;2023-02-20T03:32:53;99049.41;;;7.85;100.00
9717;BME280;4897;43.570;27.832;2023-02-20T03:35:43;99062.31;;;7.79;100.00
9717;BME280;4897;43.570;27.832;2023-02-20T03:38:31;99040.97;;;7.68;100.00
9717;BME280;4897;43.570;27.832;2023-02-20T03:41:17;99042.47;;;7.48;100.00
9717;BME280;4897;43.570;27.832;2023-02-20T03:44:04;99064.16;;;7.55;100.00
9717;BME280;4897;43.570;27.832;2023-02-20T03:46:34;99076.78;;;7.40;100.00
9717;BME280;4897;43.570;27.832;2023-02-20T03:49:05;99094.59;;;7.51;100.00
9717;BME280;4897;43.570;27.832;2023-02-20T03:51:33;99104.06;;;7.55;100.00
9717;BME280;4897;43.570;27.832;2023-02-20T03:54:01;99084.00;;;7.38;100.00
9717;BME280;4897;43.570;27.832;2023-02-20T03:56:37;99098.59;;;7.33;100.00
9717;BME280;4897;43.570;27.832;2023-02-20T03:59:08;99120.28;;;7.39;100.00
9717;BME280;4897;43.570;27.832;2023-02-20T04:01:40;99120.00;;;7.31;100.00
9717;BME280;4897;43.570;27.832;2023-02-20T04:04:10;99120.88;;;7.19;100.00
9717;BME280;4897;43.570;27.832;2023-02-20T04:06:40;99109.53;;;7.04;100.00
9717;BME280;4897;43.570;27.832;2023-02-20T04:09:13;99108.81;;;6.90;100.00
9717;BME280;4897;43.570;27.832;2023-02-20T04:11:45;99112.63;;;6.98;100.00
9717;BME280;4897;43.570;27.832;2023-02-20T04:14:17;99134.50;;;7.02;100.00
9717;BME280;4897;43.570;27.832;2023-02-20T04:16:49;99137.59;;;7.08;100.00
9717;BME280;4897;43.570;27.832;2023-02-20T04:19:17;99130.13;;;7.01;100.00
9717;BME280;4897;43.570;27.832;2023-02-20T04:21:48;99151.31;;;7.02;100.00
9717;BME280;4897;43.570;27.832;2023-02-20T04:24:20;99144.09;;;6.92;100.00
9717;BME280;4897;43.570;27.832;2023-02-20T04:26:49;99152.50;;;6.98;100.00
9717;BME280;4897;43.570;27.832;2023-02-20T04:29:16;99170.69;;;6.92;100.00
9717;BME280;4897;43.570;27.832;2023-02-20T04:31:43;99146.53;;;6.70;100.00
9717;BME280;4897;43.570;27.832;2023-02-20T04:34:10;99187.69;;;6.89;100.00
9717;BME280;4897;43.570;27.832;2023-02-20T04:36:37;99184.28;;;6.75;100.00
9717;BME280;4897;43.570;27.832;2023-02-20T04:39:06;99169.50;;;6.71;100.00
9717;BME280;4897;43.570;27.832;2023-02-20T04:41:35;99146.94;;;6.51;100.00
9717;BME280;4897;43.570;27.832;2023-02-20T04:44:02;99179.69;;;6.64;100.00
9717;BME280;4897;43.570;27.832;2023-02-20T04:46:46;99179.38;;;6.56;100.00
9717;BME280;4897;43.570;27.832;2023-02-20T04:49:13;99186.81;;;6.64;100.00
9717;BME280;4897;43.570;27.832;2023-02-20T04:51:40;99203.63;;;6.64;100.00
9717;BME280;4897;43.570;27.832;2023-02-20T04:54:06;99211.66;;;6.50;100.00
9717;BME280;4897;43.570;27.832;2023-02-20T04:56:35;99222.97;;;6.66;100.00
9717;BME280;4897;43.570;27.832;2023-02-20T04:59:02;99227.22;;;6.69;100.00
9717;BME280;4897;43.570;27.832;2023-02-20T05:01:29;99174.28;;;6.14;100.00
9717;BME280;4897;43.570;27.832;2023-02-20T05:03:56;99204.63;;;6.36;100.00
9717;BME280;4897;43.570;27.832;2023-02-20T05:06:23;99235.28;;;6.55;100.00
9717;BME280;4897;43.570;27.832;2023-02-20T05:08:50;99239.50;;;6.57;100.00
9717;BME280;4897;43.570;27.832;2023-02-20T05:11:16;99233.53;;;6.41;100.00
9717;BME280;4897;43.570;27.832;2023-02-20T05:13:45;99234.50;;;6.40;100.00
9717;BME280;4897;43.570;27.832;2023-02-20T05:16:12;99238.84;;;6.41;100.00
9717;BME280;4897;43.570;27.832;2023-02-20T05:18:39;99240.16;;;6.48;100.00
9717;BME280;4897;43.570;27.832;2023-02-20T05:21:06;99239.31;;;6.21;100.00
9717;BME280;4897;43.570;27.832;2023-02-20T05:23:50;99255.19;;;6.35;100.00
9717;BME280;4897;43.570;27.832;2023-02-20T05:26:18;99251.53;;;6.23;100.00
9717;BME280;4897;43.570;27.832;2023-02-20T05:28:47;99275.91;;;6.16;100.00
9717;BME280;4897;43.570;27.832;2023-02-20T05:31:14;99280.19;;;6.18;100.00
9717;BME280;4897;43.570;27.832;2023-02-20T05:33:41;99278.41;;;6.19;100.00
9717;BME280;4897;43.570;27.832;2023-02-20T05:36:08;99289.19;;;6.30;100.00
9717;BME280;4897;43.570;27.832;2023-02-20T05:38:35;99279.69;;;6.26;100.00
9717;BME280;4897;43.570;27.832;2023-02-20T05:41:01;99292.94;;;6.26;100.00
9717;BME280;4897;43.570;27.832;2023-02-20T05:43:28;99310.72;;;6.11;100.00
9717;BME280;4897;43.570;27.832;2023-02-20T05:45:57;99307.81;;;6.02;100.00
9717;BME280;4897;43.570;27.832;2023-02-20T05:48:24;99315.97;;;5.99;100.00
9717;BME280;4897;43.570;27.832;2023-02-20T05:50:51;99321.97;;;5.88;100.00
9717;BME280;4897;43.570;27.832;2023-02-20T05:53:19;99336.25;;;6.00;100.00
9717;BME280;4897;43.570;27.832;2023-02-20T05:55:46;99327.84;;;5.93;100.00
9717;BME280;4897;43.570;27.832;2023-02-20T05:58:13;99336.75;;;5.92;100.00
9717;BME280;4897;43.570;27.832;2023-02-20T06:00:40;99283.81;;;5.48;100.00
9717;BME280;4897;43.570;27.832;2023-02-20T06:03:08;99373.78;;;6.08;100.00
9717;BME280;4897;43.570;27.832;2023-02-20T06:05:35;99376.06;;;6.00;100.00
9717;BME280;4897;43.570;27.832;2023-02-20T06:08:02;99376.09;;;5.86;100.00
9717;BME280;4897;43.570;27.832;2023-02-20T06:10:30;99404.25;;;5.88;100.00
9717;BME280;4897;43.570;27.832;2023-02-20T06:12:57;99417.31;;;5.91;100.00
9717;BME280;4897;43.570;27.832;2023-02-20T06:15:24;99414.63;;;5.77;100.00
9717;BME280;4897;43.570;27.832;2023-02-20T06:17:51;99429.16;;;6.00;100.00
9717;BME280;4897;43.570;27.832;2023-02-20T06:20:20;99418.53;;;6.00;100.00
9717;BME280;4897;43.570;27.832;2023-02-20T06:22:47;99415.19;;;5.82;100.00
9717;BME280;4897;43.570;27.832;2023-02-20T06:25:15;99417.28;;;5.77;100.00
9717;BME280;4897;43.570;27.832;2023-02-20T06:27:42;99416.63;;;5.74;100.00
9717;BME280;4897;43.570;27.832;2023-02-20T06:30:10;99433.38;;;5.74;100.00
9717;BME280;4897;43.570;27.832;2023-02-20T06:32:37;99415.19;;;5.68;100.00
9717;BME280;4897;43.570;27.832;2023-02-20T06:35:06;99446.25;;;5.66;100.00
9717;BME280;4897;43.570;27.832;2023-02-20T06:37:34;99425.69;;;5.55;100.00
9717;BME280;4897;43.570;27.832;2023-02-20T06:40:06;99417.72;;;5.69;100.00
9717;BME280;4897;43.570;27.832;2023-02-20T06:42:33;99314.44;;;5.10;100.00
9717;BME280;4897;43.570;27.832;2023-02-20T06:45:00;99435.22;;;5.88;100.00
9717;BME280;4897;43.570;27.832;2023-02-20T06:47:27;99420.22;;;5.73;100.00
9717;BME280;4897;43.570;27.832;2023-02-20T06:49:54;99413.88;;;5.75;100.00
9717;BME280;4897;43.570;27.832;2023-02-20T06:52:20;99426.75;;;5.81;100.00
9717;BME280;4897;43.570;27.832;2023-02-20T06:54:49;99429.47;;;5.65;100.00
9717;BME280;4897;43.570;27.832;2023-02-20T06:57:17;99458.91;;;5.47;100.00
9717;BME280;4897;43.570;27.832;2023-02-20T06:59:44;99453.06;;;5.26;100.00
9717;BME280;4897;43.570;27.832;2023-02-20T07:02:12;99467.97;;;5.13;100.00
9717;BME280;4897;43.570;27.832;2023-02-20T07:04:40;99470.34;;;4.88;100.00
9717;BME280;4897;43.570;27.832;2023-02-20T07:07:07;99487.34;;;4.68;100.00
9717;BME280;4897;43.570;27.832;2023-02-20T07:09:36;99497.44;;;4.62;100.00
9717;BME280;4897;43.570;27.832;2023-02-20T07:12:06;99483.09;;;4.50;100.00
9717;BME280;4897;43.570;27.832;2023-02-20T07:14:33;99494.59;;;4.49;100.00
9717;BME280;4897;43.570;27.832;2023-02-20T07:17:00;99502.72;;;4.46;100.00
9717;BME280;4897;43.570;27.832;2023-02-20T07:19:27;99514.91;;;4.49;100.00
9717;BME280;4897;43.570;27.832;2023-02-20T07:21:53;99503.94;;;4.24;100.00
9717;BME280;4897;43.570;27.832;2023-02-20T07:24:20;99527.75;;;4.24;100.00
9717;BME280;4897;43.570;27.832;2023-02-20T07:26:47;99523.03;;;4.13;100.00
9717;BME280;4897;43.570;27.832;2023-02-20T07:29:16;99532.59;;;4.00;100.00
9717;BME280;4897;43.570;27.832;2023-02-20T07:31:43;99541.66;;;3.94;100.00
9717;BME280;4897;43.570;27.832;2023-02-20T07:34:11;99545.97;;;3.80;100.00
9717;BME280;4897;43.570;27.832;2023-02-20T07:36:38;99553.66;;;3.84;100.00
9717;BME280;4897;43.570;27.832;2023-02-20T07:39:06;99546.81;;;3.80;100.00
9717;BME280;4897;43.570;27.832;2023-02-20T07:41:34;99550.16;;;3.84;100.00
9717;BME280;4897;43.570;27.832;2023-02-20T07:44:01;99542.53;;;3.78;100.00
9717;BME280;4897;43.570;27.832;2023-02-20T07:46:30;99556.63;;;3.78;100.00
9717;BME280;4897;43.570;27.832;2023-02-20T07:48:59;99568.06;;;3.62;100.00
9717;BME280;4897;43.570;27.832;2023-02-20T07:51:26;99559.50;;;3.40;100.00
9717;BME280;4897;43.570;27.832;2023-02-20T07:53:53;99568.00;;;3.46;100.00
9717;BME280;4897;43.570;27.832;2023-02-20T07:56:21;99555.28;;;3.53;100.00
9717;BME280;4897;43.570;27.832;2023-02-20T07:58:49;99577.78;;;3.78;100.00
9717;BME280;4897;43.570;27.832;2023-02-20T08:01:16;99581.84;;;3.68;100.00
9717;BME280;4897;43.570;27.832;2023-02-20T08:03:45;99583.09;;;3.78;100.00
9717;BME280;4897;43.570;27.832;2023-02-20T08:06:14;99584.63;;;3.82;100.00
9717;BME280;4897;43.570;27.832;2023-02-20T08:08:42;99587.91;;;3.87;100.00
9717;BME280;4897;43.570;27.832;2023-02-20T08:11:09;99579.97;;;3.70;100.00
9717;BME280;4897;43.570;27.832;2023-02-20T08:13:36;99579.88;;;3.72;100.00
9717;BME280;4897;43.570;27.832;2023-02-20T08:16:03;99586.38;;;3.83;100.00
9717;BME280;4897;43.570;27.832;2023-02-20T08:18:30;99605.72;;;4.01;100.00
9717;BME280;4897;43.570;27.832;2023-02-20T08:20:58;99611.50;;;3.92;100.00
9717;BME280;4897;43.570;27.832;2023-02-20T08:23:25;99614.50;;;4.01;100.00
9717;BME280;4897;43.570;27.832;2023-02-20T08:25:52;99616.53;;;4.14;100.00
9717;BME280;4897;43.570;27.832;2023-02-20T08:28:20;99619.63;;;4.22;100.00
9717;BME280;4897;43.570;27.832;2023-02-20T08:30:50;99620.44;;;4.07;100.00
9717;BME280;4897;43.570;27.832;2023-02-20T08:33:17;99626.88;;;3.84;100.00
9717;BME280;4897;43.570;27.832;2023-02-20T08:35:44;99614.38;;;3.87;100.00
9717;BME280;4897;43.570;27.832;2023-02-20T08:38:26;99589.13;;;3.63;100.00
9717;BME280;4897;43.570;27.832;2023-02-20T08:40:54;99622.34;;;3.86;100.00
9717;BME280;4897;43.570;27.832;2023-02-20T08:43:21;99620.25;;;3.92;100.00
9717;BME280;4897;43.570;27.832;2023-02-20T08:45:48;99620.25;;;3.92;100.00
9717;BME280;4897;43.570;27.832;2023-02-20T08:48:15;99613.50;;;3.87;100.00
9717;BME280;4897;43.570;27.832;2023-02-20T08:50:42;99631.88;;;3.90;100.00
9717;BME280;4897;43.570;27.832;2023-02-20T08:53:11;99622.75;;;3.95;100.00
9717;BME280;4897;43.570;27.832;2023-02-20T08:55:40;99614.97;;;3.92;100.00
9717;BME280;4897;43.570;27.832;2023-02-20T08:58:07;99635.81;;;4.16;100.00
9717;BME280;4897;43.570;27.832;2023-02-20T09:00:35;99631.94;;;4.23;100.00
9717;BME280;4897;43.570;27.832;2023-02-20T09:03:02;99630.94;;;4.25;100.00
9717;BME280;4897;43.570;27.832;2023-02-20T09:05:31;99647.19;;;4.35;100.00
9717;BME280;4897;43.570;27.832;2023-02-20T09:08:02;99618.94;;;4.18;100.00
9717;BME280;4897;43.570;27.832;2023-02-20T09:10:29;99627.84;;;4.17;100.00
9717;BME280;4897;43.570;27.832;2023-02-20T09:12:58;99641.97;;;4.33;100.00
9717;BME280;4897;43.570;27.832;2023-02-20T09:15:25;99600.47;;;4.34;100.00
9717;BME280;4897;43.570;27.832;2023-02-20T09:17:53;99614.28;;;4.56;100.00
9717;BME280;4897;43.570;27.832;2023-02-20T09:20:21;99625.09;;;4.84;100.00
9717;BME280;4897;43.570;27.832;2023-02-20T09:22:49;99620.53;;;5.19;100.00
9717;BME280;4897;43.570;27.832;2023-02-20T09:25:17;99626.25;;;5.42;100.00
9717;BME280;4897;43.570;27.832;2023-02-20T09:27:44;99621.09;;;5.71;100.00
9717;BME280;4897;43.570;27.832;2023-02-20T09:30:16;99624.41;;;5.90;100.00
9717;BME280;4897;43.570;27.832;2023-02-20T09:32:45;99634.72;;;6.10;100.00
9717;BME280;4897;43.570;27.832;2023-02-20T09:35:16;99625.44;;;6.17;100.00
9717;BME280;4897;43.570;27.832;2023-02-20T09:37:44;99631.78;;;6.14;100.00
9717;BME280;4897;43.570;27.832;2023-02-20T09:40:12;99624.53;;;6.32;100.00
9717;BME280;4897;43.570;27.832;2023-02-20T09:42:48;99623.13;;;6.55;100.00
9717;BME280;4897;43.570;27.832;2023-02-20T09:45:21;99598.16;;;6.43;100.00
9717;BME280;4897;43.570;27.832;2023-02-20T09:47:59;99615.53;;;6.63;100.00
9717;BME280;4897;43.570;27.832;2023-02-20T09:50:38;99633.44;;;6.45;100.00
9717;BME280;4897;43.570;27.832;2023-02-20T09:53:16;99648.69;;;6.71;100.00
9717;BME280;4897;43.570;27.832;2023-02-20T09:55:46;99643.91;;;7.18;100.00
9717;BME280;4897;43.570;27.832;2023-02-20T09:58:21;99645.31;;;7.65;100.00
9717;BME280;4897;43.570;27.832;2023-02-20T10:00:51;99644.47;;;7.64;100.00
9717;BME280;4897;43.570;27.832;2023-02-20T10:03:22;99654.56;;;7.86;100.00
9717;BME280;4897;43.570;27.832;2023-02-20T10:05:50;99655.63;;;7.43;100.00
9717;BME280;4897;43.570;27.832;2023-02-20T10:08:20;99656.19;;;7.48;100.00
9717;BME280;4897;43.570;27.832;2023-02-20T10:10:49;99636.56;;;7.22;100.00
9717;BME280;4897;43.570;27.832;2023-02-20T10:13:33;99659.25;;;7.42;100.00
9717;BME280;4897;43.570;27.832;2023-02-20T10:16:14;99655.69;;;7.14;100.00
9717;BME280;4897;43.570;27.832;2023-02-20T10:18:50;99657.41;;;7.01;100.00
9717;BME280;4897;43.570;27.832;2023-02-20T10:21:36;99636.59;;;7.08;100.00
9717;BME280;4897;43.570;27.832;2023-02-20T10:24:21;99649.53;;;7.00;100.00
9717;BME280;4897;43.570;27.832;2023-02-20T10:26:53;99642.78;;;6.94;100.00
9717;BME280;4897;43.570;27.832;2023-02-20T10:29:23;99634.22;;;7.17;100.00
9717;BME280;4897;43.570;27.832;2023-02-20T10:31:59;99623.34;;;7.49;100.00
9717;BME280;4897;43.570;27.832;2023-02-20T10:34:29;99629.81;;;7.71;100.00
9717;BME280;4897;43.570;27.832;2023-02-20T10:37:02;99621.94;;;7.82;100.00
9717;BME280;4897;43.570;27.832;2023-02-20T10:39:33;99607.16;;;7.91;100.00
9717;BME280;4897;43.570;27.832;2023-02-20T10:42:08;99590.31;;;8.17;100.00
9717;BME280;4897;43.570;27.832;2023-02-20T10:44:39;99620.84;;;8.26;100.00
9717;BME280;4897;43.570;27.832;2023-02-20T10:47:16;99622.13;;;8.45;100.00
9717;BME280;4897;43.570;27.832;2023-02-20T10:49:51;99595.03;;;8.76;100.00
9717;BME280;4897;43.570;27.832;2023-02-20T10:52:27;99617.59;;;9.09;100.00
9717;BME280;4897;43.570;27.832;2023-02-20T10:55:04;99616.16;;;8.79;100.00
9717;BME280;4897;43.570;27.832;2023-02-20T10:57:36;99644.84;;;8.38;100.00
9717;BME280;4897;43.570;27.832;2023-02-20T11:00:09;99612.09;;;8.36;100.00
9717;BME280;4897;43.570;27.832;2023-02-20T11:02:44;99618.81;;;8.92;100.00
9717;BME280;4897;43.570;27.832;2023-02-20T11:05:17;99601.53;;;8.85;100.00
9717;BME280;4897;43.570;27.832;2023-02-20T11:07:44;99605.16;;;8.84;100.00
9717;BME280;4897;43.570;27.832;2023-02-20T11:10:13;99604.22;;;8.60;100.00
9717;BME280;4897;43.570;27.832;2023-02-20T11:12:43;99605.06;;;8.60;100.00
9717;BME280;4897;43.570;27.832;2023-02-20T11:15:12;99601.63;;;8.83;100.00
9717;BME280;4897;43.570;27.832;2023-02-20T11:17:41;99574.75;;;8.86;100.00
9717;BME280;4897;43.570;27.832;2023-02-20T11:23:35;99584.63;;;9.46;100.00
9717;BME280;4897;43.570;27.832;2023-02-20T11:26:24;99590.50;;;9.15;100.00
9717;BME280;4897;43.570;27.832;2023-02-20T11:28:56;99587.78;;;8.78;100.00
9717;BME280;4897;43.570;27.832;2023-02-20T11:31:24;99584.16;;;8.54;100.00
9717;BME280;4897;43.570;27.832;2023-02-20T11:33:54;99600.16;;;8.54;100.00
9717;BME280;4897;43.570;27.832;2023-02-20T11:36:23;99570.53;;;8.59;100.00
9717;BME280;4897;43.570;27.832;2023-02-20T11:38:59;99577.53;;;8.72;100.00
9717;BME280;4897;43.570;27.832;2023-02-20T11:41:31;99588.06;;;8.86;100.00
9717;BME280;4897;43.570;27.832;2023-02-20T11:44:06;99570.63;;;8.57;100.00
9717;BME280;4897;43.570;27.832;2023-02-20T11:46:33;99580.16;;;8.98;100.00
9717;BME280;4897;43.570;27.832;2023-02-20T11:49:03;99582.47;;;9.15;100.00
9717;BME280;4897;43.570;27.832;2023-02-20T11:51:33;99585.25;;;9.26;100.00
9717;BME280;4897;43.570;27.832;2023-02-20T11:54:11;99575.56;;;9.12;100.00
9717;BME280;4897;43.570;27.832;2023-02-20T11:56:53;99598.03;;;8.59;100.00
9717;BME280;4897;43.570;27.832;2023-02-20T11:59:30;99580.75;;;8.65;100.00
9717;BME280;4897;43.570;27.832;2023-02-20T12:02:15;99579.91;;;8.39;100.00
9717;BME280;4897;43.570;27.832;2023-02-20T12:05:00;99610.69;;;8.31;100.00
9717;BME280;4897;43.570;27.832;2023-02-20T12:07:33;99596.53;;;8.43;100.00
9717;BME280;4897;43.570;27.832;2023-02-20T12:10:17;99617.75;;;8.69;100.00
9717;BME280;4897;43.570;27.832;2023-02-20T12:12:45;99588.88;;;8.63;100.00
9717;BME280;4897;43.570;27.832;2023-02-20T12:15:14;99604.22;;;9.34;100.00
9717;BME280;4897;43.570;27.832;2023-02-20T12:17:49;99585.03;;;9.76;100.00
9717;BME280;4897;43.570;27.832;2023-02-20T12:20:27;99591.84;;;9.80;100.00
9717;BME280;4897;43.570;27.832;2023-02-20T12:23:04;99596.75;;;9.97;100.00
9717;BME280;4897;43.570;27.832;2023-02-20T12:25:38;99590.75;;;10.52;100.00
9717;BME280;4897;43.570;27.832;2023-02-20T12:28:16;99586.22;;;10.30;100.00
9717;BME280;4897;43.570;27.832;2023-02-20T12:30:59;99593.56;;;10.62;94.97
9717;BME280;4897;43.570;27.832;2023-02-20T12:34:01;99587.38;;;10.83;87.81
9717;BME280;4897;43.570;27.832;2023-02-20T12:36:38;99595.25;;;10.63;84.38
9717;BME280;4897;43.570;27.832;2023-02-20T12:39:10;99583.84;;;10.94;85.83
9717;BME280;4897;43.570;27.832;2023-02-20T12:41:48;99571.88;;;11.42;82.53
9717;BME280;4897;43.570;27.832;2023-02-20T12:44:42;99594.25;;;11.41;78.43
9717;BME280;4897;43.570;27.832;2023-02-20T12:47:26;99585.19;;;11.21;86.87
9717;BME280;4897;43.570;27.832;2023-02-20T12:53:05;99569.13;;;11.64;73.09
9717;BME280;4897;43.570;27.832;2023-02-20T12:55:40;99574.59;;;12.06;70.70
9717;BME280;4897;43.570;27.832;2023-02-20T12:58:20;99563.28;;;12.64;68.72
9717;BME280;4897;43.570;27.832;2023-02-20T13:00:52;99560.94;;;13.59;63.93
9717;BME280;4897;43.570;27.832;2023-02-20T13:03:22;99557.00;;;14.02;57.90
9717;BME280;4897;43.570;27.832;2023-02-20T13:05:50;99517.06;;;14.16;56.30
9717;BME280;4897;43.570;27.832;2023-02-20T13:08:24;99551.72;;;14.94;52.08
9717;BME280;4897;43.570;27.832;2023-02-20T13:10:56;99551.66;;;15.41;49.47
9717;BME280;4897;43.570;27.832;2023-02-20T13:13:26;99376.41;;;12.44;54.96
9717;BME280;4897;43.570;27.832;2023-02-20T13:16:02;99565.84;;;12.03;64.24
9717;BME280;4897;43.570;27.832;2023-02-20T13:18:38;99570.22;;;10.53;80.71
9717;BME280;4897;43.570;27.832;2023-02-20T13:21:10;99568.63;;;10.50;97.85
9717;BME280;4897;43.570;27.832;2023-02-20T13:23:39;99579.63;;;9.65;100.00
9717;BME280;4897;43.570;27.832;2023-02-20T13:29:13;99582.09;;;8.96;100.00
9717;BME280;4897;43.570;27.832;2023-02-20T13:31:45;99567.00;;;8.33;100.00
9717;BME280;4897;43.570;27.832;2023-02-20T13:34:30;99574.69;;;8.75;100.00
9717;BME280;4897;43.570;27.832;2023-02-20T13:36:58;99557.66;;;9.96;100.00
9717;BME280;4897;43.570;27.832;2023-02-20T13:39:43;99548.81;;;10.30;100.00
9717;BME280;4897;43.570;27.832;2023-02-20T13:42:29;99560.13;;;11.11;93.35
9717;BME280;4897;43.570;27.832;2023-02-20T13:44:57;99547.41;;;12.51;75.64
9717;BME280;4897;43.570;27.832;2023-02-20T13:47:33;99561.78;;;11.88;76.49
9717;BME280;4897;43.570;27.832;2023-02-20T13:50:30;99550.69;;;12.14;77.94
9717;BME280;4897;43.570;27.832;2023-02-20T13:53:04;99554.91;;;12.16;75.12
9717;BME280;4897;43.570;27.832;2023-02-20T13:55:33;99555.31;;;11.91;81.32